sensor_id;sensor_type;location;lat;lon;timestamp;temperature;humidity
15103;DHT22;7652;53.584;9.998;2023-03-13T00:00:01;8.50;99.90
15103;DHT22;7652;53.584;9.998;2023-03-13T00:03:07;8.40;99.90
15103;DHT22;7652;53.584;9.998;2023-03-13T00:06:10;8.50;99.90
15103;DHT22;7652;53.584;9.998;2023-03-13T00:09:14;8.50;99.90
15103;DHT22;7652;53.584;9.998;2023-03-13T00:12:17;8.50;99.90
15103;DHT22;7652;53.584;9.998;2023-03-13T00:15:20;8.50;99.90
15103;DHT22;7652;53.584;9.998;2023-03-13T00:18:25;8.50;99.90
15103;DHT22;7652;53.584;9.998;2023-03-13T00:21:28;8.50;99.90
15103;DHT22;7652;53.584;9.998;2023-03-13T00:24:31;8.50;99.90
15103;DHT22;7652;53.584;9.998;2023-03-13T00:27:34;8.50;99.90
15103;DHT22;7652;53.584;9.998;2023-03-13T00:30:37;8.50;99.90
15103;DHT22;7652;53.584;9.998;2023-03-13T00:33:43;8.50;99.90
15103;DHT22;7652;53.584;9.998;2023-03-13T00:36:46;8.50;99.90
15103;DHT22;7652;53.584;9.998;2023-03-13T00:39:49;8.50;99.90
15103;DHT22;7652;53.584;9.998;2023-03-13T00:42:52;8.60;99.90
15103;DHT22;7652;53.584;9.998;2023-03-13T00:45:55;8.50;99.90
15103;DHT22;7652;53.584;9.998;2023-03-13T00:48:59;8.60;99.90
15103;DHT22;7652;53.584;9.998;2023-03-13T00:52:03;8.60;99.90
15103;DHT22;7652;53.584;9.998;2023-03-13T00:55:06;8.60;99.90
15103;DHT22;7652;53.584;9.998;2023-03-13T00:58:09;8.70;99.90
15103;DHT22;7652;53.584;9.998;2023-03-13T01:01:14;8.70;99.90
15103;DHT22;7652;53.584;9.998;2023-03-13T01:04:18;8.70;99.90
15103;DHT22;7652;53.584;9.998;2023-03-13T01:07:21;8.80;99.90
15103;DHT22;7652;53.584;9.998;2023-03-13T01:10:24;8.80;99.90
15103;DHT22;7652;53.584;9.998;2023-03-13T01:13:28;8.80;99.90
15103;DHT22;7652;53.584;9.998;2023-03-13T01:16:35;8.90;99.90
15103;DHT22;7652;53.584;9.998;2023-03-13T01:19:40;8.90;99.90
15103;DHT22;7652;53.584;9.998;2023-03-13T01:22:43;8.90;99.90
15103;DHT22;7652;53.584;9.998;2023-03-13T01:25:46;8.90;99.90
15103;DHT22;7652;53.584;9.998;2023-03-13T01:28:49;8.90;99.90
15103;DHT22;7652;53.584;9.998;2023-03-13T01:31:52;8.90;99.90
15103;DHT22;7652;53.584;9.998;2023-03-13T01:34:56;8.90;99.90
15103;DHT22;7652;53.584;9.998;2023-03-13T01:37:59;9.00;99.90
15103;DHT22;7652;53.584;9.998;2023-03-13T01:41:02;9.00;99.90
15103;DHT22;7652;53.584;9.998;2023-03-13T01:44:17;9.10;99.90
15103;DHT22;7652;53.584;9.998;2023-03-13T01:47:22;9.10;99.90
15103;DHT22;7652;53.584;9.998;2023-03-13T01:50:26;9.10;99.90
15103;DHT22;7652;53.584;9.998;2023-03-13T01:53:32;9.10;99.90
15103;DHT22;7652;53.584;9.998;2023-03-13T01:56:39;9.10;99.90
15103;DHT22;7652;53.584;9.998;2023-03-13T01:59:45;9.10;99.90
15103;DHT22;7652;53.584;9.998;2023-03-13T02:02:51;9.10;99.90
15103;DHT22;7652;53.584;9.998;2023-03-13T02:05:57;9.10;99.90
15103;DHT22;7652;53.584;9.998;2023-03-13T02:09:04;9.10;99.90
15103;DHT22;7652;53.584;9.998;2023-03-13T02:12:12;9.10;99.90
15103;DHT22;7652;53.584;9.998;2023-03-13T02:15:18;9.10;99.90
15103;DHT22;7652;53.584;9.998;2023-03-13T02:18:21;9.10;99.90
15103;DHT22;7652;53.584;9.998;2023-03-13T02:21:39;9.10;99.90
15103;DHT22;7652;53.584;9.998;2023-03-13T02:24:48;9.10;99.90
15103;DHT22;7652;53.584;9.998;2023-03-13T02:27:57;9.10;99.90
15103;DHT22;7652;53.584;9.998;2023-03-13T02:31:02;9.10;99.90
15103;DHT22;7652;53.584;9.998;2023-03-13T02:34:05;9.10;99.90
15103;DHT22;7652;53.584;9.998;2023-03-13T02:37:08;9.10;99.90
15103;DHT22;7652;53.584;9.998;2023-03-13T02:40:17;9.10;99.90
15103;DHT22;7652;53.584;9.998;2023-03-13T02:43:28;9.00;99.90
15103;DHT22;7652;53.584;9.998;2023-03-13T02:46:43;8.90;99.90
15103;DHT22;7652;53.584;9.998;2023-03-13T02:49:46;9.00;99.90
15103;DHT22;7652;53.584;9.998;2023-03-13T02:52:55;8.90;99.90
15103;DHT22;7652;53.584;9.998;2023-03-13T02:56:00;8.90;99.90
15103;DHT22;7652;53.584;9.998;2023-03-13T02:59:05;8.80;99.90
15103;DHT22;7652;53.584;9.998;2023-03-13T03:02:08;8.70;99.90
15103;DHT22;7652;53.584;9.998;2023-03-13T03:05:12;8.70;99.90
15103;DHT22;7652;53.584;9.998;2023-03-13T03:08:15;8.70;99.90
15103;DHT22;7652;53.584;9.998;2023-03-13T03:11:18;8.60;99.90
15103;DHT22;7652;53.584;9.998;2023-03-13T03:14:22;8.50;99.90
15103;DHT22;7652;53.584;9.998;2023-03-13T03:17:25;8.50;99.90
15103;DHT22;7652;53.584;9.998;2023-03-13T03:20:28;8.50;99.90
15103;DHT22;7652;53.584;9.998;2023-03-13T03:23:31;8.50;99.90
15103;DHT22;7652;53.584;9.998;2023-03-13T03:26:35;8.50;99.90
15103;DHT22;7652;53.584;9.998;2023-03-13T03:29:39;8.50;99.90
15103;DHT22;7652;53.584;9.998;2023-03-13T03:32:42;8.50;99.90
15103;DHT22;7652;53.584;9.998;2023-03-13T03:35:45;8.50;99.90
15103;DHT22;7652;53.584;9.998;2023-03-13T03:38:49;8.50;99.90
15103;DHT22;7652;53.584;9.998;2023-03-13T03:41:52;8.50;99.90
15103;DHT22;7652;53.584;9.998;2023-03-13T03:44:56;8.50;99.90
15103;DHT22;7652;53.584;9.998;2023-03-13T03:47:59;8.50;99.90
15103;DHT22;7652;53.584;9.998;2023-03-13T03:51:02;8.50;99.90
15103;DHT22;7652;53.584;9.998;2023-03-13T03:54:05;8.50;99.90
15103;DHT22;7652;53.584;9.998;2023-03-13T03:57:08;8.40;99.90
15103;DHT22;7652;53.584;9.998;2023-03-13T04:00:13;8.40;99.90
15103;DHT22;7652;53.584;9.998;2023-03-13T04:03:16;8.40;99.90
15103;DHT22;7652;53.584;9.998;2023-03-13T04:06:20;8.40;99.90
15103;DHT22;7652;53.584;9.998;2023-03-13T04:09:23;8.30;99.90
15103;DHT22;7652;53.584;9.998;2023-03-13T04:12:26;8.30;99.90
15103;DHT22;7652;53.584;9.998;2023-03-13T04:15:30;8.30;99.90
15103;DHT22;7652;53.584;9.998;2023-03-13T04:18:33;8.30;99.90
15103;DHT22;7652;53.584;9.998;2023-03-13T04:21:36;8.30;99.90
15103;DHT22;7652;53.584;9.998;2023-03-13T04:24:40;8.30;99.90
15103;DHT22;7652;53.584;9.998;2023-03-13T04:27:43;8.30;99.90
15103;DHT22;7652;53.584;9.998;2023-03-13T04:30:47;8.30;99.90
15103;DHT22;7652;53.584;9.998;2023-03-13T04:33:51;8.30;99.90
15103;DHT22;7652;53.584;9.998;2023-03-13T04:36:54;8.30;99.90
15103;DHT22;7652;53.584;9.998;2023-03-13T04:39:56;8.20;99.90
15103;DHT22;7652;53.584;9.998;2023-03-13T04:42:59;8.20;99.90
15103;DHT22;7652;53.584;9.998;2023-03-13T04:46:04;8.20;99.90
15103;DHT22;7652;53.584;9.998;2023-03-13T04:49:07;8.20;99.90
15103;DHT22;7652;53.584;9.998;2023-03-13T04:52:10;8.10;99.90
15103;DHT22;7652;53.584;9.998;2023-03-13T04:55:13;8.10;99.90
15103;DHT22;7652;53.584;9.998;2023-03-13T04:58:16;8.10;99.90
15103;DHT22;7652;53.584;9.998;2023-03-13T05:01:21;8.10;99.90
15103;DHT22;7652;53.584;9.998;2023-03-13T05:04:24;8.10;99.90
15103;DHT22;7652;53.584;9.998;2023-03-13T05:07:27;8.00;99.90
15103;DHT22;7652;53.584;9.998;2023-03-13T05:10:30;8.10;99.90
15103;DHT22;7652;53.584;9.998;2023-03-13T05:13:33;8.10;99.90
15103;DHT22;7652;53.584;9.998;2023-03-13T05:16:37;8.10;99.90
15103;DHT22;7652;53.584;9.998;2023-03-13T05:19:40;8.10;99.90
15103;DHT22;7652;53.584;9.998;2023-03-13T05:22:43;8.20;99.90
15103;DHT22;7652;53.584;9.998;2023-03-13T05:25:46;8.10;99.90
15103;DHT22;7652;53.584;9.998;2023-03-13T05:28:49;8.10;99.90
15103;DHT22;7652;53.584;9.998;2023-03-13T05:31:53;8.10;99.90
15103;DHT22;7652;53.584;9.998;2023-03-13T05:34:56;8.10;99.90
15103;DHT22;7652;53.584;9.998;2023-03-13T05:37:59;8.10;99.90
15103;DHT22;7652;53.584;9.998;2023-03-13T05:41:02;8.20;99.90
15103;DHT22;7652;53.584;9.998;2023-03-13T05:44:05;8.20;99.90
15103;DHT22;7652;53.584;9.998;2023-03-13T05:47:10;8.20;99.90
15103;DHT22;7652;53.584;9.998;2023-03-13T05:50:13;8.20;99.90
15103;DHT22;7652;53.584;9.998;2023-03-13T05:53:16;8.20;99.90
15103;DHT22;7652;53.584;9.998;2023-03-13T05:56:19;8.20;99.90
15103;DHT22;7652;53.584;9.998;2023-03-13T05:59:21;8.30;99.90
15103;DHT22;7652;53.584;9.998;2023-03-13T06:02:26;8.30;99.90
15103;DHT22;7652;53.584;9.998;2023-03-13T06:05:29;8.30;99.90
15103;DHT22;7652;53.584;9.998;2023-03-13T06:08:32;8.30;99.90
15103;DHT22;7652;53.584;9.998;2023-03-13T06:11:35;8.40;99.90
15103;DHT22;7652;53.584;9.998;2023-03-13T06:14:38;8.40;99.90
15103;DHT22;7652;53.584;9.998;2023-03-13T06:17:42;8.40;99.90
15103;DHT22;7652;53.584;9.998;2023-03-13T06:20:45;8.40;99.90
15103;DHT22;7652;53.584;9.998;2023-03-13T06:23:48;8.40;99.90
15103;DHT22;7652;53.584;9.998;2023-03-13T06:26:51;8.50;99.90
15103;DHT22;7652;53.584;9.998;2023-03-13T06:29:54;8.60;99.90
15103;DHT22;7652;53.584;9.998;2023-03-13T06:32:58;8.60;99.90
15103;DHT22;7652;53.584;9.998;2023-03-13T06:36:02;8.80;99.90
15103;DHT22;7652;53.584;9.998;2023-03-13T06:39:05;8.90;99.90
15103;DHT22;7652;53.584;9.998;2023-03-13T06:42:09;9.00;99.90
15103;DHT22;7652;53.584;9.998;2023-03-13T06:45:12;9.00;99.90
15103;DHT22;7652;53.584;9.998;2023-03-13T06:48:16;9.10;99.90
15103;DHT22;7652;53.584;9.998;2023-03-13T06:51:20;9.10;99.90
15103;DHT22;7652;53.584;9.998;2023-03-13T06:54:24;9.20;99.90
15103;DHT22;7652;53.584;9.998;2023-03-13T06:57:27;9.20;99.90
15103;DHT22;7652;53.584;9.998;2023-03-13T07:00:30;9.30;99.90
15103;DHT22;7652;53.584;9.998;2023-03-13T07:03:34;9.30;99.90
15103;DHT22;7652;53.584;9.998;2023-03-13T07:06:38;9.30;99.90
15103;DHT22;7652;53.584;9.998;2023-03-13T07:09:40;9.40;99.90
15103;DHT22;7652;53.584;9.998;2023-03-13T07:12:43;9.40;99.90
15103;DHT22;7652;53.584;9.998;2023-03-13T07:15:46;9.50;99.90
15103;DHT22;7652;53.584;9.998;2023-03-13T07:18:51;9.50;99.90
15103;DHT22;7652;53.584;9.998;2023-03-13T07:21:54;9.60;99.90
15103;DHT22;7652;53.584;9.998;2023-03-13T07:24:57;9.60;99.90
15103;DHT22;7652;53.584;9.998;2023-03-13T07:28:00;9.70;99.90
15103;DHT22;7652;53.584;9.998;2023-03-13T07:31:05;9.70;99.90
15103;DHT22;7652;53.584;9.998;2023-03-13T07:34:11;9.70;99.90
15103;DHT22;7652;53.584;9.998;2023-03-13T07:37:15;9.80;99.90
15103;DHT22;7652;53.584;9.998;2023-03-13T07:40:18;9.80;99.90
15103;DHT22;7652;53.584;9.998;2023-03-13T07:43:22;9.80;99.90
15103;DHT22;7652;53.584;9.998;2023-03-13T07:46:25;9.90;99.90
15103;DHT22;7652;53.584;9.998;2023-03-13T07:49:29;10.00;99.90
15103;DHT22;7652;53.584;9.998;2023-03-13T07:52:32;10.00;99.90
15103;DHT22;7652;53.584;9.998;2023-03-13T07:55:35;10.10;99.90
15103;DHT22;7652;53.584;9.998;2023-03-13T07:58:40;10.10;99.90
15103;DHT22;7652;53.584;9.998;2023-03-13T08:01:43;10.20;99.90
15103;DHT22;7652;53.584;9.998;2023-03-13T08:04:50;10.20;99.90
15103;DHT22;7652;53.584;9.998;2023-03-13T08:07:53;10.30;99.90
15103;DHT22;7652;53.584;9.998;2023-03-13T08:11:00;10.40;99.90
15103;DHT22;7652;53.584;9.998;2023-03-13T08:14:03;10.50;99.90
15103;DHT22;7652;53.584;9.998;2023-03-13T08:17:06;10.50;99.90
15103;DHT22;7652;53.584;9.998;2023-03-13T08:20:11;10.50;99.90
15103;DHT22;7652;53.584;9.998;2023-03-13T08:23:14;10.60;99.90
15103;DHT22;7652;53.584;9.998;2023-03-13T08:26:18;10.70;99.90
15103;DHT22;7652;53.584;9.998;2023-03-13T08:29:21;10.80;99.90
15103;DHT22;7652;53.584;9.998;2023-03-13T08:32:24;10.80;99.90
15103;DHT22;7652;53.584;9.998;2023-03-13T08:35:29;10.90;99.90
15103;DHT22;7652;53.584;9.998;2023-03-13T08:38:32;10.90;99.90
15103;DHT22;7652;53.584;9.998;2023-03-13T08:41:36;10.90;99.90
15103;DHT22;7652;53.584;9.998;2023-03-13T08:44:41;11.00;99.90
15103;DHT22;7652;53.584;9.998;2023-03-13T08:47:44;11.10;99.90
15103;DHT22;7652;53.584;9.998;2023-03-13T08:50:59;11.10;99.90
15103;DHT22;7652;53.584;9.998;2023-03-13T08:54:02;11.10;99.90
15103;DHT22;7652;53.584;9.998;2023-03-13T08:57:06;11.10;99.90
15103;DHT22;7652;53.584;9.998;2023-03-13T09:00:10;11.20;99.90
15103;DHT22;7652;53.584;9.998;2023-03-13T09:03:14;11.20;99.90
15103;DHT22;7652;53.584;9.998;2023-03-13T09:06:19;11.30;99.90
15103;DHT22;7652;53.584;9.998;2023-03-13T09:09:23;11.30;99.90
15103;DHT22;7652;53.584;9.998;2023-03-13T09:12:26;11.40;99.90
15103;DHT22;7652;53.584;9.998;2023-03-13T09:15:32;11.40;99.90
15103;DHT22;7652;53.584;9.998;2023-03-13T09:18:36;11.40;99.90
15103;DHT22;7652;53.584;9.998;2023-03-13T09:21:40;11.50;99.90
15103;DHT22;7652;53.584;9.998;2023-03-13T09:24:43;11.50;99.90
15103;DHT22;7652;53.584;9.998;2023-03-13T09:27:46;11.60;99.90
15103;DHT22;7652;53.584;9.998;2023-03-13T09:30:49;11.60;99.90
15103;DHT22;7652;53.584;9.998;2023-03-13T09:33:52;11.70;99.90
15103;DHT22;7652;53.584;9.998;2023-03-13T09:36:57;11.70;99.90
15103;DHT22;7652;53.584;9.998;2023-03-13T09:40:00;11.70;99.90
15103;DHT22;7652;53.584;9.998;2023-03-13T09:43:03;11.80;99.90
15103;DHT22;7652;53.584;9.998;2023-03-13T09:46:12;11.80;99.90
15103;DHT22;7652;53.584;9.998;2023-03-13T09:49:29;11.90;99.90
15103;DHT22;7652;53.584;9.998;2023-03-13T09:52:37;11.90;99.90
15103;DHT22;7652;53.584;9.998;2023-03-13T09:55:43;11.90;99.90
15103;DHT22;7652;53.584;9.998;2023-03-13T09:58:52;12.00;99.90
15103;DHT22;7652;53.584;9.998;2023-03-13T10:01:57;12.00;99.90
15103;DHT22;7652;53.584;9.998;2023-03-13T10:05:09;12.10;99.90
15103;DHT22;7652;53.584;9.998;2023-03-13T10:08:17;12.10;99.90
15103;DHT22;7652;53.584;9.998;2023-03-13T10:11:26;12.10;99.90
15103;DHT22;7652;53.584;9.998;2023-03-13T10:14:32;12.20;99.90
15103;DHT22;7652;53.584;9.998;2023-03-13T10:17:38;12.20;99.90
15103;DHT22;7652;53.584;9.998;2023-03-13T10:20:44;12.20;99.90
15103;DHT22;7652;53.584;9.998;2023-03-13T10:23:52;12.20;99.90
15103;DHT22;7652;53.584;9.998;2023-03-13T10:26:57;12.30;99.90
15103;DHT22;7652;53.584;9.998;2023-03-13T10:30:00;12.40;99.90
15103;DHT22;7652;53.584;9.998;2023-03-13T10:33:18;12.40;99.90
15103;DHT22;7652;53.584;9.998;2023-03-13T10:36:21;12.40;99.90
15103;DHT22;7652;53.584;9.998;2023-03-13T10:39:27;12.70;99.90
15103;DHT22;7652;53.584;9.998;2023-03-13T10:42:36;12.90;99.90
15103;DHT22;7652;53.584;9.998;2023-03-13T10:45:40;13.30;99.90
15103;DHT22;7652;53.584;9.998;2023-03-13T10:48:43;13.50;99.90
15103;DHT22;7652;53.584;9.998;2023-03-13T10:51:48;14.10;99.90
15103;DHT22;7652;53.584;9.998;2023-03-13T10:54:55;14.60;99.90
15103;DHT22;7652;53.584;9.998;2023-03-13T10:58:03;14.70;99.90
15103;DHT22;7652;53.584;9.998;2023-03-13T11:01:19;14.60;99.90
15103;DHT22;7652;53.584;9.998;2023-03-13T11:04:29;14.30;99.90
15103;DHT22;7652;53.584;9.998;2023-03-13T11:07:34;14.00;99.90
15103;DHT22;7652;53.584;9.998;2023-03-13T11:10:50;13.80;99.90
15103;DHT22;7652;53.584;9.998;2023-03-13T11:14:06;13.60;99.90
15103;DHT22;7652;53.584;9.998;2023-03-13T11:17:17;13.50;99.90
15103;DHT22;7652;53.584;9.998;2023-03-13T11:20:24;13.50;99.90
15103;DHT22;7652;53.584;9.998;2023-03-13T11:23:31;13.70;99.90
15103;DHT22;7652;53.584;9.998;2023-03-13T11:26:40;14.20;99.90
15103;DHT22;7652;53.584;9.998;2023-03-13T11:30:14;15.00;99.90
15103;DHT22;7652;53.584;9.998;2023-03-13T11:33:33;15.50;99.90
15103;DHT22;7652;53.584;9.998;2023-03-13T11:36:41;15.80;99.90
15103;DHT22;7652;53.584;9.998;2023-03-13T11:39:57;16.60;99.90
15103;DHT22;7652;53.584;9.998;2023-03-13T11:43:15;17.00;99.90
15103;DHT22;7652;53.584;9.998;2023-03-13T11:46:33;16.90;99.90
15103;DHT22;7652;53.584;9.998;2023-03-13T11:49:53;16.70;99.90
15103;DHT22;7652;53.584;9.998;2023-03-13T11:53:14;16.30;99.90
15103;DHT22;7652;53.584;9.998;2023-03-13T11:56:22;16.00;99.90
15103;DHT22;7652;53.584;9.998;2023-03-13T11:59:34;15.70;99.90
15103;DHT22;7652;53.584;9.998;2023-03-13T12:02:44;16.20;99.90
15103;DHT22;7652;53.584;9.998;2023-03-13T12:05:52;17.30;99.90
15103;DHT22;7652;53.584;9.998;2023-03-13T12:09:00;18.80;99.90
15103;DHT22;7652;53.584;9.998;2023-03-13T12:12:14;18.70;99.90
15103;DHT22;7652;53.584;9.998;2023-03-13T12:15:22;18.30;99.90
15103;DHT22;7652;53.584;9.998;2023-03-13T12:18:30;17.60;99.90
15103;DHT22;7652;53.584;9.998;2023-03-13T12:21:37;18.00;99.90
15103;DHT22;7652;53.584;9.998;2023-03-13T12:24:48;18.80;99.90
15103;DHT22;7652;53.584;9.998;2023-03-13T12:27:57;19.10;99.90
15103;DHT22;7652;53.584;9.998;2023-03-13T12:31:18;18.90;99.90
15103;DHT22;7652;53.584;9.998;2023-03-13T12:34:28;18.60;99.90
15103;DHT22;7652;53.584;9.998;2023-03-13T12:37:39;18.70;99.90
15103;DHT22;7652;53.584;9.998;2023-03-13T12:40:50;18.50;99.90
15103;DHT22;7652;53.584;9.998;2023-03-13T12:43:54;18.10;99.90
15103;DHT22;7652;53.584;9.998;2023-03-13T12:47:16;17.90;99.90
15103;DHT22;7652;53.584;9.998;2023-03-13T12:50:29;18.30;99.90
15103;DHT22;7652;53.584;9.998;2023-03-13T12:53:46;18.70;99.90
15103;DHT22;7652;53.584;9.998;2023-03-13T12:57:04;18.40;99.90
15103;DHT22;7652;53.584;9.998;2023-03-13T13:00:14;18.20;99.90
15103;DHT22;7652;53.584;9.998;2023-03-13T13:03:25;17.80;99.90
15103;DHT22;7652;53.584;9.998;2023-03-13T13:06:50;17.40;99.90
15103;DHT22;7652;53.584;9.998;2023-03-13T13:10:03;17.40;99.90
15103;DHT22;7652;53.584;9.998;2023-03-13T13:13:18;17.30;99.90
15103;DHT22;7652;53.584;9.998;2023-03-13T13:16:29;17.40;99.90
15103;DHT22;7652;53.584;9.998;2023-03-13T13:19:45;17.80;99.90
15103;DHT22;7652;53.584;9.998;2023-03-13T13:22:49;17.60;99.90
15103;DHT22;7652;53.584;9.998;2023-03-13T13:25:54;17.40;99.90
15103;DHT22;7652;53.584;9.998;2023-03-13T13:28:59;17.30;99.90
15103;DHT22;7652;53.584;9.998;2023-03-13T13:32:03;17.50;99.90
15103;DHT22;7652;53.584;9.998;2023-03-13T13:35:30;17.90;99.90
15103;DHT22;7652;53.584;9.998;2023-03-13T13:38:34;18.30;99.90
15103;DHT22;7652;53.584;9.998;2023-03-13T13:41:41;18.40;99.90
15103;DHT22;7652;53.584;9.998;2023-03-13T13:44:57;18.60;99.90
15103;DHT22;7652;53.584;9.998;2023-03-13T13:48:14;18.80;99.90
15103;DHT22;7652;53.584;9.998;2023-03-13T13:51:22;18.50;99.90
15103;DHT22;7652;53.584;9.998;2023-03-13T13:54:51;18.20;99.90
15103;DHT22;7652;53.584;9.998;2023-03-13T13:57:59;17.80;99.90
15103;DHT22;7652;53.584;9.998;2023-03-13T14:01:05;17.70;99.90
15103;DHT22;7652;53.584;9.998;2023-03-13T14:04:14;17.70;99.90
15103;DHT22;7652;53.584;9.998;2023-03-13T14:07:24;17.60;99.90
15103;DHT22;7652;53.584;9.998;2023-03-13T14:10:35;17.50;99.90
15103;DHT22;7652;53.584;9.998;2023-03-13T14:13:39;17.60;99.90
15103;DHT22;7652;53.584;9.998;2023-03-13T14:16:43;17.50;99.90
15103;DHT22;7652;53.584;9.998;2023-03-13T14:19:48;17.60;99.90
15103;DHT22;7652;53.584;9.998;2023-03-13T14:22:53;17.50;99.90
15103;DHT22;7652;53.584;9.998;2023-03-13T14:25:56;17.40;99.90
15103;DHT22;7652;53.584;9.998;2023-03-13T14:29:01;17.40;99.90
15103;DHT22;7652;53.584;9.998;2023-03-13T14:32:08;17.40;99.90
15103;DHT22;7652;53.584;9.998;2023-03-13T14:35:14;17.40;99.90
15103;DHT22;7652;53.584;9.998;2023-03-13T14:38:21;17.30;99.90
15103;DHT22;7652;53.584;9.998;2023-03-13T14:41:29;17.30;99.90
15103;DHT22;7652;53.584;9.998;2023-03-13T14:44:33;17.30;99.90
15103;DHT22;7652;53.584;9.998;2023-03-13T14:47:36;17.30;99.90
15103;DHT22;7652;53.584;9.998;2023-03-13T14:50:39;17.30;99.90
15103;DHT22;7652;53.584;9.998;2023-03-13T14:53:54;17.30;99.90
15103;DHT22;7652;53.584;9.998;2023-03-13T14:57:12;17.30;99.90
15103;DHT22;7652;53.584;9.998;2023-03-13T15:00:32;17.30;99.90
15103;DHT22;7652;53.584;9.998;2023-03-13T15:03:36;17.30;99.90
15103;DHT22;7652;53.584;9.998;2023-03-13T15:06:45;17.20;99.90
15103;DHT22;7652;53.584;9.998;2023-03-13T15:09:50;17.20;99.90
15103;DHT22;7652;53.584;9.998;2023-03-13T15:12:53;17.20;99.90
15103;DHT22;7652;53.584;9.998;2023-03-13T15:15:56;17.20;99.90
15103;DHT22;7652;53.584;9.998;2023-03-13T15:18:59;17.20;99.90
15103;DHT22;7652;53.584;9.998;2023-03-13T15:22:02;17.20;99.90
15103;DHT22;7652;53.584;9.998;2023-03-13T15:25:15;17.20;99.90
15103;DHT22;7652;53.584;9.998;2023-03-13T15:28:19;17.20;99.90
15103;DHT22;7652;53.584;9.998;2023-03-13T15:31:26;17.10;99.90
15103;DHT22;7652;53.584;9.998;2023-03-13T15:34:30;17.10;99.90
15103;DHT22;7652;53.584;9.998;2023-03-13T15:37:34;17.10;99.90
15103;DHT22;7652;53.584;9.998;2023-03-13T15:40:39;17.10;99.90
15103;DHT22;7652;53.584;9.998;2023-03-13T15:43:42;17.10;99.90
15103;DHT22;7652;53.584;9.998;2023-03-13T15:46:45;17.00;99.90
15103;DHT22;7652;53.584;9.998;2023-03-13T15:49:48;17.00;99.90
15103;DHT22;7652;53.584;9.998;2023-03-13T15:52:51;17.00;99.90
15103;DHT22;7652;53.584;9.998;2023-03-13T15:55:57;16.90;99.90
15103;DHT22;7652;53.584;9.998;2023-03-13T15:59:00;17.00;99.90
15103;DHT22;7652;53.584;9.998;2023-03-13T16:02:08;17.00;99.90
15103;DHT22;7652;53.584;9.998;2023-03-13T16:05:14;17.00;99.90
15103;DHT22;7652;53.584;9.998;2023-03-13T16:08:20;16.90;99.90
15103;DHT22;7652;53.584;9.998;2023-03-13T16:11:37;16.90;99.90
15103;DHT22;7652;53.584;9.998;2023-03-13T16:14:40;16.90;99.90
15103;DHT22;7652;53.584;9.998;2023-03-13T16:17:43;16.90;99.90
15103;DHT22;7652;53.584;9.998;2023-03-13T16:20:47;16.90;99.90
15103;DHT22;7652;53.584;9.998;2023-03-13T16:23:50;16.90;99.90
15103;DHT22;7652;53.584;9.998;2023-03-13T16:26:55;16.80;99.90
15103;DHT22;7652;53.584;9.998;2023-03-13T16:29:58;16.80;99.90
15103;DHT22;7652;53.584;9.998;2023-03-13T16:33:02;16.80;99.90
15103;DHT22;7652;53.584;9.998;2023-03-13T16:36:12;16.80;99.90
15103;DHT22;7652;53.584;9.998;2023-03-13T16:39:15;16.70;99.90
15103;DHT22;7652;53.584;9.998;2023-03-13T16:42:20;16.60;99.90
15103;DHT22;7652;53.584;9.998;2023-03-13T16:45:23;16.60;99.90
15103;DHT22;7652;53.584;9.998;2023-03-13T16:48:27;16.50;99.90
15103;DHT22;7652;53.584;9.998;2023-03-13T16:51:30;16.50;99.90
15103;DHT22;7652;53.584;9.998;2023-03-13T16:54:33;16.50;99.90
15103;DHT22;7652;53.584;9.998;2023-03-13T16:57:37;16.40;99.90
15103;DHT22;7652;53.584;9.998;2023-03-13T17:00:40;16.40;99.90
15103;DHT22;7652;53.584;9.998;2023-03-13T17:03:52;16.30;99.90
15103;DHT22;7652;53.584;9.998;2023-03-13T17:06:55;16.30;99.90
15103;DHT22;7652;53.584;9.998;2023-03-13T17:09:58;16.20;99.90
15103;DHT22;7652;53.584;9.998;2023-03-13T17:13:03;16.10;99.90
15103;DHT22;7652;53.584;9.998;2023-03-13T17:16:11;16.10;99.90
15103;DHT22;7652;53.584;9.998;2023-03-13T17:19:15;16.10;99.90
15103;DHT22;7652;53.584;9.998;2023-03-13T17:22:19;16.10;99.90
15103;DHT22;7652;53.584;9.998;2023-03-13T17:25:22;16.10;99.90
15103;DHT22;7652;53.584;9.998;2023-03-13T17:28:27;16.00;99.90
15103;DHT22;7652;53.584;9.998;2023-03-13T17:31:30;16.00;99.90
15103;DHT22;7652;53.584;9.998;2023-03-13T17:34:38;16.00;99.90
15103;DHT22;7652;53.584;9.998;2023-03-13T17:37:42;16.00;99.90
15103;DHT22;7652;53.584;9.998;2023-03-13T17:40:45;15.90;99.90
15103;DHT22;7652;53.584;9.998;2023-03-13T17:43:49;15.90;99.90
15103;DHT22;7652;53.584;9.998;2023-03-13T17:46:52;15.90;99.90
15103;DHT22;7652;53.584;9.998;2023-03-13T17:49:56;15.80;99.90
15103;DHT22;7652;53.584;9.998;2023-03-13T17:52:59;15.80;99.90
15103;DHT22;7652;53.584;9.998;2023-03-13T17:56:02;15.70;99.90
15103;DHT22;7652;53.584;9.998;2023-03-13T17:59:11;15.70;99.90
15103;DHT22;7652;53.584;9.998;2023-03-13T18:02:15;15.60;99.90
15103;DHT22;7652;53.584;9.998;2023-03-13T18:05:20;15.60;99.90
15103;DHT22;7652;53.584;9.998;2023-03-13T18:08:23;15.60;99.90
15103;DHT22;7652;53.584;9.998;2023-03-13T18:11:26;15.60;99.90
15103;DHT22;7652;53.584;9.998;2023-03-13T18:14:30;15.50;99.90
15103;DHT22;7652;53.584;9.998;2023-03-13T18:17:36;15.50;99.90
15103;DHT22;7652;53.584;9.998;2023-03-13T18:20:39;15.30;99.90
15103;DHT22;7652;53.584;9.998;2023-03-13T18:23:43;15.20;99.90
15103;DHT22;7652;53.584;9.998;2023-03-13T18:26:47;15.20;99.90
15103;DHT22;7652;53.584;9.998;2023-03-13T18:29:51;15.10;99.90
15103;DHT22;7652;53.584;9.998;2023-03-13T18:32:54;15.10;99.90
15103;DHT22;7652;53.584;9.998;2023-03-13T18:35:57;15.00;99.90
15103;DHT22;7652;53.584;9.998;2023-03-13T18:39:01;14.90;99.90
15103;DHT22;7652;53.584;9.998;2023-03-13T18:42:06;14.80;99.90
15103;DHT22;7652;53.584;9.998;2023-03-13T18:45:15;14.80;99.90
15103;DHT22;7652;53.584;9.998;2023-03-13T18:48:18;14.80;99.90
15103;DHT22;7652;53.584;9.998;2023-03-13T18:51:23;14.80;99.90
15103;DHT22;7652;53.584;9.998;2023-03-13T18:54:26;14.70;99.90
15103;DHT22;7652;53.584;9.998;2023-03-13T18:57:29;14.60;99.90
15103;DHT22;7652;53.584;9.998;2023-03-13T19:00:34;14.50;99.90
15103;DHT22;7652;53.584;9.998;2023-03-13T19:03:37;14.40;99.90
15103;DHT22;7652;53.584;9.998;2023-03-13T19:06:40;14.40;99.90
15103;DHT22;7652;53.584;9.998;2023-03-13T19:09:43;14.30;99.90
15103;DHT22;7652;53.584;9.998;2023-03-13T19:12:48;14.20;99.90
15103;DHT22;7652;53.584;9.998;2023-03-13T19:15:52;14.10;99.90
15103;DHT22;7652;53.584;9.998;2023-03-13T19:18:56;14.10;99.90
15103;DHT22;7652;53.584;9.998;2023-03-13T19:21:59;14.00;99.90
15103;DHT22;7652;53.584;9.998;2023-03-13T19:25:03;14.00;99.90
15103;DHT22;7652;53.584;9.998;2023-03-13T19:28:08;14.00;99.90
15103;DHT22;7652;53.584;9.998;2023-03-13T19:31:12;14.00;99.90
15103;DHT22;7652;53.584;9.998;2023-03-13T19:34:18;14.00;99.90
15103;DHT22;7652;53.584;9.998;2023-03-13T19:37:21;13.90;99.90
15103;DHT22;7652;53.584;9.998;2023-03-13T19:40:25;13.90;99.90
15103;DHT22;7652;53.584;9.998;2023-03-13T19:43:29;13.90;99.90
15103;DHT22;7652;53.584;9.998;2023-03-13T19:46:34;13.80;99.90
15103;DHT22;7652;53.584;9.998;2023-03-13T19:49:38;13.80;99.90
15103;DHT22;7652;53.584;9.998;2023-03-13T19:52:41;13.80;99.90
15103;DHT22;7652;53.584;9.998;2023-03-13T19:55:46;13.70;99.90
15103;DHT22;7652;53.584;9.998;2023-03-13T19:58:50;13.70;99.90